createdAt,value
2019-03-15T00:00:30.031Z,11.25
2019-03-15T00:01:40.620Z,11.45
2019-03-15T00:02:47.362Z,11.20
2019-03-15T00:03:55.440Z,10.60
2019-03-15T00:05:01.350Z,11.10
2019-03-15T00:06:08.513Z,10.63
2019-03-15T00:07:15.772Z,10.95
2019-03-15T00:08:21.862Z,11.68
2019-03-15T00:09:29.022Z,11.63
2019-03-15T00:10:36.091Z,11.45
2019-03-15T00:11:41.848Z,12.15
2019-03-15T00:12:47.881Z,11.70
2019-03-15T00:13:53.734Z,11.33
2019-03-15T00:14:59.552Z,11.35
2019-03-15T00:16:05.382Z,9.80
2019-03-15T00:17:11.180Z,9.35
2019-03-15T00:18:16.932Z,10.13
2019-03-15T00:19:22.681Z,9.78
2019-03-15T00:20:29.627Z,9.55
2019-03-15T00:21:36.388Z,10.15
2019-03-15T00:22:42.602Z,10.00
2019-03-15T00:23:48.851Z,9.80
2019-03-15T00:24:55.544Z,9.28
2019-03-15T00:26:02.356Z,9.95
2019-03-15T00:27:08.473Z,9.38
2019-03-15T00:28:14.983Z,10.45
2019-03-15T00:29:21.923Z,8.83
2019-03-15T00:30:27.982Z,9.75
2019-03-15T00:31:34.751Z,9.98
2019-03-15T00:32:40.863Z,10.65
2019-03-15T00:33:47.231Z,11.00
2019-03-15T00:34:53.603Z,10.45
2019-03-15T00:35:59.531Z,11.53
2019-03-15T00:37:05.873Z,11.60
2019-03-15T00:38:14.209Z,10.60
2019-03-15T00:39:21.576Z,10.80
2019-03-15T00:40:27.732Z,12.05
2019-03-15T00:41:33.623Z,10.38
2019-03-15T00:42:39.363Z,9.25
2019-03-15T00:43:45.124Z,9.40
2019-03-15T00:44:50.821Z,9.85
2019-03-15T00:45:56.692Z,11.05
2019-03-15T00:47:02.574Z,9.80
2019-03-15T00:48:08.521Z,8.93
2019-03-15T00:49:14.461Z,9.00
2019-03-15T00:50:20.283Z,9.13
2019-03-15T00:51:28.444Z,9.78
2019-03-15T00:52:36.372Z,8.78
2019-03-15T00:53:43.804Z,8.45
2019-03-15T00:54:50.495Z,9.48
2019-03-15T00:55:56.765Z,9.43
2019-03-15T00:57:04.221Z,9.25
2019-03-15T00:58:11.282Z,9.23
2019-03-15T00:59:17.311Z,10.20
2019-03-15T01:00:23.724Z,10.20
2019-03-15T01:01:30.358Z,10.88
2019-03-15T01:02:37.235Z,10.65
2019-03-15T01:03:43.784Z,10.18
2019-03-15T01:04:49.526Z,9.88
2019-03-15T01:05:56.164Z,10.38
2019-03-15T01:07:02.874Z,11.53
2019-03-15T01:08:09.074Z,10.13
2019-03-15T01:09:15.954Z,9.53
2019-03-15T01:10:22.353Z,11.33
2019-03-15T01:11:28.651Z,9.23
2019-03-15T01:12:34.565Z,10.18
2019-03-15T01:13:40.314Z,9.68
2019-03-15T01:14:46.204Z,8.95
2019-03-15T01:15:52.094Z,9.93
2019-03-15T01:19:30.145Z,9.70
2019-03-15T01:20:52.953Z,11.63
2019-03-15T01:21:59.390Z,9.63
2019-03-15T01:23:05.815Z,12.20
2019-03-15T01:24:12.605Z,11.75
2019-03-15T01:25:19.646Z,10.03
2019-03-15T01:26:26.644Z,12.18
2019-03-15T01:27:33.436Z,9.25
2019-03-15T01:28:40.104Z,9.95
2019-03-15T01:29:46.415Z,9.43
2019-03-15T01:30:52.925Z,11.30
2019-03-15T01:31:59.674Z,9.48
2019-03-15T01:33:07.755Z,10.53
2019-03-15T01:34:15.163Z,9.85
2019-03-15T01:35:21.835Z,9.95
2019-03-15T01:36:28.325Z,9.23
2019-03-15T01:37:35.133Z,10.93
2019-03-15T01:38:42.185Z,10.95
2019-03-15T01:39:48.923Z,12.95
2019-03-15T01:40:54.987Z,14.10
2019-03-15T01:42:00.902Z,15.95
2019-03-15T01:43:06.676Z,17.10
2019-03-15T01:44:12.526Z,17.48
2019-03-15T01:45:18.461Z,17.60
2019-03-15T01:46:24.325Z,15.53
2019-03-15T01:47:30.105Z,13.13
2019-03-15T01:48:35.813Z,11.38
2019-03-15T01:49:44.506Z,11.05
2019-03-15T01:50:50.542Z,11.48
2019-03-15T01:51:56.517Z,11.97
2019-03-15T01:53:02.675Z,10.50
2019-03-15T01:54:11.935Z,11.20
2019-03-15T01:55:18.610Z,10.30
2019-03-15T01:56:25.576Z,9.73
2019-03-15T01:57:32.704Z,10.30
2019-03-15T01:58:40.605Z,10.43
2019-03-15T01:59:48.392Z,9.90
2019-03-15T02:00:56.166Z,10.65
2019-03-15T02:02:02.797Z,10.93
2019-03-15T02:03:09.328Z,10.65
2019-03-15T02:04:16.465Z,11.48
2019-03-15T02:05:23.696Z,11.03
2019-03-15T02:06:30.359Z,11.88
2019-03-15T02:07:37.363Z,11.00
2019-03-15T02:08:43.215Z,11.00
2019-03-15T02:09:49.360Z,11.38
2019-03-15T02:10:55.576Z,10.60
2019-03-15T02:12:01.476Z,10.40
2019-03-15T02:13:08.305Z,10.25
2019-03-15T02:14:14.160Z,10.03
2019-03-15T02:15:20.065Z,13.10
2019-03-15T02:16:25.894Z,10.05
2019-03-15T02:17:31.636Z,10.55
2019-03-15T02:18:37.543Z,11.08
2019-03-15T02:19:43.355Z,11.10
2019-03-15T02:20:50.637Z,13.28
2019-03-15T02:21:56.686Z,15.15
2019-03-15T02:23:03.234Z,15.93
2019-03-15T02:24:09.675Z,14.45
2019-03-15T02:25:15.935Z,15.98
2019-03-15T02:26:22.674Z,16.85
2019-03-15T02:27:29.067Z,16.25
2019-03-15T02:28:35.877Z,15.23
2019-03-15T02:29:43.557Z,12.82
2019-03-15T02:30:49.714Z,14.00
2019-03-15T02:31:56.415Z,13.50
2019-03-15T02:33:03.176Z,15.03
2019-03-15T02:34:08.928Z,13.43
2019-03-15T02:35:15.805Z,13.80
2019-03-15T02:36:23.438Z,12.68
2019-03-15T02:37:29.725Z,12.45
2019-03-15T02:38:36.629Z,12.65
2019-03-15T02:39:42.838Z,12.93
2019-03-15T02:40:49.149Z,13.88
2019-03-15T02:41:55.402Z,15.53
2019-03-15T02:43:01.463Z,14.50
2019-03-15T02:44:07.296Z,14.53
2019-03-15T02:45:14.069Z,17.00
2019-03-15T02:46:20.164Z,18.57
2019-03-15T02:47:26.100Z,19.67
2019-03-15T02:48:32.258Z,17.40
2019-03-15T02:49:38.007Z,15.65
2019-03-15T02:50:44.197Z,13.13
2019-03-15T02:51:50.245Z,13.10
2019-03-15T02:52:56.808Z,12.63
2019-03-15T02:54:03.215Z,13.22
2019-03-15T02:55:10.977Z,13.22
2019-03-15T02:56:18.727Z,11.88
2019-03-15T02:57:25.477Z,12.35
2019-03-15T02:58:32.916Z,12.03
2019-03-15T02:59:38.820Z,12.68
2019-03-15T03:00:44.707Z,12.93
2019-03-15T03:01:53.207Z,12.47
2019-03-15T03:02:59.029Z,12.23
2019-03-15T03:04:05.810Z,12.95
2019-03-15T03:05:12.637Z,13.68
2019-03-15T03:06:19.450Z,15.55
2019-03-15T03:07:25.647Z,15.10
2019-03-15T03:08:34.258Z,15.72
2019-03-15T03:09:42.159Z,16.90
2019-03-15T03:10:50.273Z,18.35
2019-03-15T03:11:56.319Z,18.27
2019-03-15T03:13:02.102Z,17.87
2019-03-15T03:14:07.819Z,14.73
2019-03-15T03:15:13.638Z,14.40
2019-03-15T03:16:19.522Z,16.12
2019-03-15T03:17:25.430Z,16.02
2019-03-15T03:18:31.304Z,16.50
2019-03-15T03:19:37.059Z,16.20
2019-03-15T03:20:42.858Z,16.00
2019-03-15T03:21:48.826Z,16.17
2019-03-15T03:22:55.519Z,17.45
2019-03-15T03:24:01.409Z,17.10
2019-03-15T03:25:07.940Z,16.02
2019-03-15T03:26:14.664Z,16.93
2019-03-15T03:27:22.027Z,16.37
2019-03-15T03:28:28.679Z,19.20
2019-03-15T03:29:35.442Z,17.92
2019-03-15T03:30:45.851Z,19.98
2019-03-15T03:31:52.439Z,20.40
2019-03-15T03:32:58.170Z,19.67
2019-03-15T03:34:04.379Z,17.73
2019-03-15T03:35:11.699Z,18.02
2019-03-15T03:36:18.261Z,16.52
2019-03-15T03:37:24.508Z,16.10
2019-03-15T03:38:31.746Z,16.73
2019-03-15T03:39:37.678Z,15.50
2019-03-15T03:40:43.868Z,15.05
2019-03-15T03:41:49.820Z,13.45
2019-03-15T03:42:55.641Z,14.30
2019-03-15T03:44:01.503Z,15.90
2019-03-15T03:45:09.417Z,16.85
2019-03-15T03:46:15.269Z,18.15
2019-03-15T03:47:21.118Z,20.02
2019-03-15T03:48:27.060Z,20.10
2019-03-15T03:49:32.838Z,23.02
2019-03-15T03:50:38.575Z,19.48
2019-03-15T03:51:44.378Z,18.52
2019-03-15T03:52:51.488Z,17.77
2019-03-15T03:53:58.198Z,17.30
2019-03-15T03:55:05.708Z,16.30
2019-03-15T03:56:12.531Z,16.50
2019-03-15T03:57:19.571Z,15.38
2019-03-15T03:58:25.977Z,15.50
2019-03-15T03:59:33.418Z,16.62
2019-03-15T04:00:41.380Z,17.07
2019-03-15T04:01:47.679Z,18.85
2019-03-15T04:02:54.770Z,16.20
2019-03-15T04:04:00.738Z,13.45
2019-03-15T04:05:08.937Z,14.13
2019-03-15T04:06:15.934Z,15.20
2019-03-15T04:07:22.229Z,15.25
2019-03-15T04:08:29.279Z,13.35
2019-03-15T04:09:37.039Z,12.40
2019-03-15T04:10:43.479Z,14.68
2019-03-15T04:11:55.778Z,14.50
2019-03-15T04:12:59.070Z,12.30
2019-03-15T04:14:04.809Z,12.00
2019-03-15T04:15:11.869Z,12.58
2019-03-15T04:16:17.719Z,10.85
2019-03-15T04:17:25.133Z,11.63
2019-03-15T04:18:31.067Z,11.35
2019-03-15T04:19:36.880Z,10.75
2019-03-15T04:20:42.817Z,11.28
2019-03-15T04:21:48.619Z,11.35
2019-03-15T04:22:55.587Z,10.30
2019-03-15T04:24:02.327Z,10.45
2019-03-15T04:25:11.247Z,10.70
2019-03-15T04:26:17.503Z,10.55
2019-03-15T04:27:23.819Z,10.20
2019-03-15T04:28:30.110Z,10.78
2019-03-15T04:29:36.835Z,11.70
2019-03-15T04:30:44.732Z,11.38
2019-03-15T04:34:19.154Z,14.07
2019-03-15T04:35:25.752Z,19.42
2019-03-15T04:36:32.320Z,12.30
2019-03-15T04:37:39.970Z,10.18
2019-03-15T04:38:46.694Z,9.60
2019-03-15T04:39:53.152Z,11.28
2019-03-15T04:41:01.062Z,10.78
2019-03-15T04:42:08.966Z,11.45
2019-03-15T04:43:14.740Z,17.95
2019-03-15T04:44:20.682Z,11.53
2019-03-15T04:45:26.590Z,8.33
2019-03-15T04:46:33.501Z,8.85
2019-03-15T04:47:39.330Z,8.70
2019-03-15T04:48:46.200Z,7.60
2019-03-15T04:49:52.148Z,7.37
2019-03-15T04:50:58.037Z,7.45
2019-03-15T04:52:04.030Z,9.38
2019-03-15T04:53:09.860Z,8.98
2019-03-15T04:54:16.303Z,9.08
2019-03-15T04:55:22.733Z,8.50
2019-03-15T04:56:29.569Z,8.03
2019-03-15T04:57:36.652Z,8.28
2019-03-15T04:58:44.002Z,8.15
2019-03-15T04:59:50.693Z,7.78
2019-03-15T05:00:57.970Z,7.70
2019-03-15T05:02:04.574Z,7.20
2019-03-15T05:03:10.641Z,7.58
2019-03-15T05:04:17.259Z,7.10
2019-03-15T05:05:24.705Z,7.05
2019-03-15T05:06:31.079Z,6.70
2019-03-15T05:07:39.568Z,7.55
2019-03-15T05:08:47.171Z,8.10
2019-03-15T05:09:53.380Z,6.35
2019-03-15T05:11:00.031Z,6.60
2019-03-15T05:12:06.411Z,6.87
2019-03-15T05:13:12.231Z,6.72
2019-03-15T05:14:17.972Z,6.78
2019-03-15T05:15:23.709Z,6.85
2019-03-15T05:16:29.478Z,6.80
2019-03-15T05:19:16.159Z,7.37
2019-03-15T05:19:22.071Z,7.60
2019-03-15T05:20:22.261Z,7.08
2019-03-15T05:21:27.961Z,8.25
2019-03-15T05:22:33.802Z,6.92
2019-03-15T05:23:40.561Z,6.87
2019-03-15T05:24:46.971Z,6.40
2019-03-15T05:25:53.853Z,7.95
2019-03-15T05:27:00.677Z,6.75
2019-03-15T05:28:07.604Z,6.47
2019-03-15T05:29:13.652Z,6.53
2019-03-15T05:30:21.099Z,6.90
2019-03-15T05:31:28.762Z,7.12
2019-03-15T05:32:34.892Z,7.35
2019-03-15T05:33:41.092Z,7.00
2019-03-15T05:34:47.831Z,7.70
2019-03-15T05:35:54.034Z,7.40
2019-03-15T05:37:01.145Z,8.35
2019-03-15T05:38:08.601Z,7.75
2019-03-15T05:39:14.681Z,9.70
2019-03-15T05:40:22.095Z,9.80
2019-03-15T05:41:28.402Z,10.65
2019-03-15T05:42:34.688Z,7.95
2019-03-15T05:43:40.472Z,8.30
2019-03-15T05:44:46.312Z,7.95
2019-03-15T05:45:52.202Z,6.40
2019-03-15T05:46:58.032Z,6.60
2019-03-15T05:48:03.852Z,8.75
2019-03-15T05:49:09.730Z,8.88
2019-03-15T05:50:15.499Z,8.23
2019-03-15T05:51:22.749Z,7.87
2019-03-15T05:52:28.545Z,6.50
2019-03-15T05:53:34.892Z,6.35
2019-03-15T05:54:42.202Z,6.42
2019-03-15T05:55:49.332Z,6.50
2019-03-15T05:56:56.096Z,7.08
2019-03-15T05:58:02.612Z,9.10
2019-03-15T05:59:09.700Z,9.73
2019-03-15T06:00:17.302Z,9.00
2019-03-15T06:01:23.062Z,10.28
2019-03-15T06:02:29.689Z,8.18
2019-03-15T06:03:47.840Z,7.92
2019-03-15T06:04:44.892Z,7.75
2019-03-15T06:05:51.722Z,7.42
2019-03-15T06:06:57.653Z,8.13
2019-03-15T06:08:03.973Z,7.33
2019-03-15T06:09:10.832Z,7.90
2019-03-15T06:10:16.872Z,7.35
2019-03-15T06:11:23.304Z,8.65
2019-03-15T06:12:31.003Z,12.85
2019-03-15T06:13:36.904Z,12.40
2019-03-15T06:14:42.722Z,8.65
2019-03-15T06:15:48.621Z,10.25
2019-03-15T06:16:54.463Z,8.70
2019-03-15T06:18:00.594Z,8.75
2019-03-15T06:19:06.803Z,11.20
2019-03-15T06:20:13.751Z,16.17
2019-03-15T06:21:19.749Z,20.02
2019-03-15T06:22:25.633Z,20.50
2019-03-15T06:23:31.556Z,13.90
2019-03-15T06:24:38.122Z,7.70
2019-03-15T06:25:43.983Z,8.33
2019-03-15T06:26:51.058Z,14.75
2019-03-15T06:27:58.634Z,27.00
2019-03-15T06:29:05.974Z,15.78
2019-03-15T06:30:15.937Z,28.00
2019-03-15T06:31:22.519Z,18.12
2019-03-15T06:32:28.923Z,10.58
2019-03-15T06:33:36.343Z,8.88
2019-03-15T06:35:03.534Z,20.12
2019-03-15T06:36:10.252Z,10.72
2019-03-15T06:37:17.083Z,8.40
2019-03-15T06:38:22.964Z,8.25
2019-03-15T06:39:29.846Z,7.50
2019-03-15T06:40:37.396Z,7.67
2019-03-15T06:41:43.428Z,9.78
2019-03-15T06:42:49.844Z,10.82
2019-03-15T06:43:55.673Z,9.63
2019-03-15T06:45:02.490Z,12.82
2019-03-15T06:46:08.474Z,14.18
2019-03-15T06:47:14.310Z,11.70
2019-03-15T06:48:20.071Z,9.90
2019-03-15T06:49:25.832Z,8.80
2019-03-15T06:50:31.651Z,8.93
2019-03-15T06:51:37.452Z,10.40
2019-03-15T06:52:43.186Z,7.12
2019-03-15T06:53:48.975Z,8.20
2019-03-15T06:54:54.795Z,7.42
2019-03-15T06:56:02.335Z,11.00
2019-03-15T06:57:08.813Z,8.58
2019-03-15T06:58:15.504Z,6.90
2019-03-15T06:59:22.876Z,7.42
2019-03-15T07:00:29.794Z,7.53
2019-03-15T07:01:36.884Z,6.03
2019-03-15T07:02:44.022Z,5.83
2019-03-15T07:03:50.594Z,6.37
2019-03-15T07:04:57.314Z,6.05
2019-03-15T07:06:04.422Z,6.53
2019-03-15T07:07:15.078Z,6.10
2019-03-15T07:08:19.446Z,9.00
2019-03-15T07:09:25.680Z,11.68
2019-03-15T07:10:32.863Z,6.90
2019-03-15T07:11:39.515Z,9.35
2019-03-15T07:12:47.075Z,7.20
2019-03-15T07:13:53.104Z,6.40
2019-03-15T07:15:00.443Z,5.42
2019-03-15T07:16:06.311Z,6.55
2019-03-15T07:17:12.128Z,7.55
2019-03-15T07:18:18.766Z,7.17
2019-03-15T07:19:28.877Z,6.58
2019-03-15T07:20:32.214Z,8.15
2019-03-15T07:21:38.156Z,7.12
2019-03-15T07:22:43.957Z,7.67
2019-03-15T07:23:49.775Z,8.20
2019-03-15T07:24:56.655Z,8.55
2019-03-15T07:26:03.725Z,7.67
2019-03-15T07:27:13.258Z,9.68
2019-03-15T07:28:19.349Z,9.90
2019-03-15T07:29:26.402Z,7.95
2019-03-15T07:30:32.327Z,7.95
2019-03-15T07:31:39.165Z,10.48
2019-03-15T07:32:46.305Z,7.33
2019-03-15T07:33:52.874Z,9.18
2019-03-15T07:34:59.855Z,7.05
2019-03-15T07:36:06.653Z,6.57
2019-03-15T07:37:12.847Z,6.33
2019-03-15T07:38:19.350Z,6.47
2019-03-15T07:39:26.917Z,14.77
2019-03-15T07:40:32.995Z,6.03
2019-03-15T07:41:39.470Z,5.43
2019-03-15T07:42:46.637Z,5.33
2019-03-15T07:43:52.723Z,5.60
2019-03-15T07:44:58.713Z,5.97
2019-03-15T07:46:04.527Z,7.17
2019-03-15T07:47:11.517Z,8.60
2019-03-15T07:48:22.345Z,4.95
2019-03-15T07:49:24.781Z,4.97
2019-03-15T07:50:30.525Z,5.47
2019-03-15T07:51:36.404Z,6.50
2019-03-15T07:52:42.151Z,15.90
2019-03-15T07:53:48.188Z,8.90
2019-03-15T07:54:54.802Z,8.20
2019-03-15T07:56:01.005Z,7.80
2019-03-15T07:57:07.502Z,5.53
2019-03-15T07:58:13.825Z,5.87
2019-03-15T07:59:20.987Z,5.20
2019-03-15T08:00:27.296Z,9.20
2019-03-15T08:01:34.765Z,5.10
2019-03-15T08:02:40.825Z,5.47
2019-03-15T08:03:47.625Z,5.20
2019-03-15T08:04:54.687Z,5.40
2019-03-15T08:06:01.823Z,5.60
2019-03-15T08:07:08.045Z,5.80
2019-03-15T08:08:15.511Z,3.97
2019-03-15T08:09:26.787Z,4.97
2019-03-15T08:10:33.930Z,4.00
2019-03-15T08:11:51.061Z,7.53
2019-03-15T08:12:58.964Z,11.17
2019-03-15T08:14:04.800Z,6.93
2019-03-15T08:15:12.518Z,5.90
2019-03-15T08:16:18.366Z,8.87
2019-03-15T08:17:24.068Z,8.43
2019-03-15T08:18:30.844Z,9.63
2019-03-15T08:19:37.754Z,4.67
2019-03-15T08:20:43.619Z,5.63
2019-03-15T08:21:49.434Z,3.60
2019-03-15T08:22:55.226Z,2.77
2019-03-15T08:24:01.926Z,2.77
2019-03-15T08:25:10.767Z,7.50
2019-03-15T08:26:18.646Z,14.30
2019-03-15T08:27:24.495Z,3.83
2019-03-15T08:28:30.365Z,5.93
2019-03-15T08:29:36.671Z,4.23
2019-03-15T08:30:43.857Z,7.00
2019-03-15T08:31:51.546Z,8.30
2019-03-15T08:33:09.501Z,4.63
2019-03-15T08:34:08.436Z,2.80
2019-03-15T08:35:14.957Z,3.67
2019-03-15T08:36:21.095Z,3.67
2019-03-15T08:37:28.116Z,2.53
2019-03-15T08:38:46.694Z,2.30
2019-03-15T08:39:44.931Z,7.10
2019-03-15T08:40:51.739Z,9.37
2019-03-15T08:41:58.232Z,3.07
2019-03-15T08:43:04.385Z,2.20
2019-03-15T08:44:10.239Z,3.73
2019-03-15T08:45:19.126Z,3.53
2019-03-15T08:46:24.846Z,2.53
2019-03-15T08:47:30.856Z,3.13
2019-03-15T08:48:36.565Z,3.20
2019-03-15T08:49:42.504Z,2.90
2019-03-15T08:50:49.793Z,3.87
2019-03-15T08:52:03.905Z,5.10
2019-03-15T08:53:03.287Z,3.17
2019-03-15T08:54:09.054Z,3.10
2019-03-15T08:55:19.586Z,3.30
2019-03-15T08:56:25.712Z,2.93
2019-03-15T08:57:34.157Z,2.37
2019-03-15T08:58:43.552Z,3.07
2019-03-15T08:59:56.834Z,2.40
2019-03-15T09:01:00.207Z,2.93
2019-03-15T09:02:07.568Z,2.33
2019-03-15T09:03:27.390Z,2.30
2019-03-15T09:04:23.168Z,4.60
2019-03-15T09:05:29.789Z,3.23
2019-03-15T09:06:35.608Z,2.40
2019-03-15T09:07:41.655Z,2.17
2019-03-15T09:08:48.219Z,2.27
2019-03-15T09:09:55.487Z,2.37
2019-03-15T09:11:01.687Z,2.60
2019-03-15T09:12:07.724Z,3.90
2019-03-15T09:13:13.577Z,3.27
2019-03-15T09:14:19.319Z,2.93
2019-03-15T09:15:25.195Z,3.60
2019-03-15T09:16:31.008Z,4.27
2019-03-15T09:17:37.929Z,2.90
2019-03-15T09:18:43.758Z,2.93
2019-03-15T09:19:49.623Z,2.90
2019-03-15T09:20:55.542Z,2.83
2019-03-15T09:22:01.347Z,2.80
2019-03-15T09:23:07.311Z,3.07
2019-03-15T09:24:13.087Z,2.07
2019-03-15T09:25:21.320Z,2.63
2019-03-15T09:26:27.127Z,2.50
2019-03-15T09:27:33.011Z,2.67
2019-03-15T09:28:39.239Z,2.50
2019-03-15T09:29:45.321Z,1.97
2019-03-15T09:30:51.367Z,2.50
2019-03-15T09:32:06.246Z,3.07
2019-03-15T09:33:05.709Z,2.77
2019-03-15T09:34:12.437Z,2.73
2019-03-15T09:35:18.327Z,3.20
2019-03-15T09:36:25.207Z,4.77
2019-03-15T09:37:32.868Z,4.17
2019-03-15T09:38:38.578Z,2.43
2019-03-15T09:39:44.918Z,2.23
2019-03-15T09:40:51.559Z,4.20
2019-03-15T09:41:57.618Z,2.10
2019-03-15T09:43:04.225Z,2.17
2019-03-15T09:44:10.368Z,3.10
2019-03-15T09:45:18.636Z,1.93
2019-03-15T09:46:24.476Z,2.27
2019-03-15T09:47:30.177Z,2.70
2019-03-15T09:48:36.999Z,3.93
2019-03-15T09:49:42.966Z,6.53
2019-03-15T09:50:51.553Z,5.50
2019-03-15T09:51:56.328Z,3.27
2019-03-15T09:53:05.657Z,3.20
2019-03-15T09:54:09.758Z,3.30
2019-03-15T09:55:15.781Z,2.37
2019-03-15T09:56:23.328Z,2.37
2019-03-15T09:57:29.057Z,7.53
2019-03-15T09:58:34.690Z,3.37
2019-03-15T09:59:40.470Z,5.07
2019-03-15T10:00:46.658Z,7.30
2019-03-15T10:01:52.697Z,2.20
2019-03-15T10:02:58.567Z,7.10
2019-03-15T10:04:05.039Z,8.63
2019-03-15T10:05:11.865Z,7.67
2019-03-15T10:06:19.582Z,3.73
2019-03-15T10:07:37.851Z,13.80
2019-03-15T10:08:33.240Z,9.53
2019-03-15T10:09:45.703Z,8.37
2019-03-15T10:10:49.242Z,8.63
2019-03-15T10:11:56.616Z,4.83
2019-03-15T10:13:06.223Z,4.10
2019-03-15T10:14:10.927Z,2.63
2019-03-15T10:15:20.106Z,3.63
2019-03-15T10:16:25.820Z,2.10
2019-03-15T10:17:31.648Z,4.73
2019-03-15T10:18:37.470Z,7.03
2019-03-15T10:19:43.336Z,5.90
2019-03-15T10:20:49.140Z,2.50
2019-03-15T10:21:54.879Z,2.20
2019-03-15T10:23:05.819Z,2.33
2019-03-15T10:24:09.410Z,2.50
2019-03-15T10:25:16.891Z,2.67
2019-03-15T10:26:23.369Z,3.30
2019-03-15T10:27:30.030Z,3.63
2019-03-15T10:28:35.753Z,2.80
2019-03-15T10:29:42.371Z,2.20
2019-03-15T10:30:48.994Z,1.90
2019-03-15T10:31:55.181Z,3.00
2019-03-15T10:33:00.895Z,2.53
2019-03-15T10:34:07.531Z,2.57
2019-03-15T10:35:14.743Z,2.30
2019-03-15T10:36:20.576Z,3.90
2019-03-15T10:37:26.790Z,3.80
2019-03-15T10:38:32.661Z,2.97
2019-03-15T10:39:40.080Z,3.33
2019-03-15T10:40:46.830Z,3.90
2019-03-15T10:41:53.360Z,4.40
2019-03-15T10:42:59.493Z,7.00
2019-03-15T10:44:06.055Z,4.17
2019-03-15T10:45:13.650Z,7.60
2019-03-15T10:46:19.491Z,4.13
2019-03-15T10:47:25.322Z,5.67
2019-03-15T10:48:31.047Z,2.90
2019-03-15T10:49:36.984Z,1.63
2019-03-15T10:50:42.811Z,4.30
2019-03-15T10:51:48.733Z,8.40
2019-03-15T10:52:54.482Z,3.87
2019-03-15T10:54:00.450Z,1.70
2019-03-15T10:55:07.841Z,1.80
2019-03-15T10:56:14.147Z,4.67
2019-03-15T10:57:20.681Z,2.17
2019-03-15T10:58:26.769Z,4.10
2019-03-15T10:59:32.811Z,2.70
2019-03-15T11:00:39.670Z,4.80
2019-03-15T11:01:45.461Z,2.97
2019-03-15T11:02:52.053Z,2.23
2019-03-15T11:03:58.691Z,9.40
2019-03-15T11:05:06.021Z,3.50
2019-03-15T11:06:12.640Z,5.80
2019-03-15T11:07:18.511Z,5.33
2019-03-15T11:08:24.791Z,5.87
2019-03-15T11:09:31.251Z,4.37
2019-03-15T11:10:38.938Z,2.20
2019-03-15T11:11:45.090Z,5.93
2019-03-15T11:12:52.141Z,3.10
2019-03-15T11:14:00.479Z,7.10
2019-03-15T11:15:09.765Z,2.73
2019-03-15T11:16:15.731Z,2.70
2019-03-15T11:17:21.491Z,2.97
2019-03-15T11:18:27.556Z,5.70
2019-03-15T11:19:33.405Z,3.37
2019-03-15T11:20:39.210Z,5.67
2019-03-15T11:21:45.061Z,1.70
2019-03-15T11:22:50.979Z,1.93
2019-03-15T11:23:56.782Z,3.63
2019-03-15T11:25:02.621Z,3.40
2019-03-15T11:26:13.623Z,6.67
2019-03-15T11:27:16.882Z,3.57
2019-03-15T11:28:22.861Z,4.20
2019-03-15T11:29:29.323Z,3.00
2019-03-15T11:30:35.822Z,1.47
2019-03-15T11:31:43.773Z,4.37
2019-03-15T11:32:50.645Z,2.57
2019-03-15T11:33:57.893Z,1.80
2019-03-15T11:35:04.722Z,2.00
2019-03-15T11:36:10.902Z,2.17
2019-03-15T11:37:17.352Z,2.83
2019-03-15T11:38:23.447Z,5.27
2019-03-15T11:39:29.402Z,2.37
2019-03-15T11:40:37.998Z,6.60
2019-03-15T11:41:44.024Z,7.07
2019-03-15T11:42:49.716Z,6.87
2019-03-15T11:43:56.020Z,3.53
2019-03-15T11:45:05.574Z,3.63
2019-03-15T11:46:11.572Z,8.57
2019-03-15T11:47:20.065Z,3.50
2019-03-15T11:48:25.940Z,4.17
2019-03-15T11:49:31.746Z,8.53
2019-03-15T11:50:37.518Z,36.07
2019-03-15T11:51:43.281Z,13.27
2019-03-15T11:52:48.975Z,9.10
2019-03-15T11:53:54.795Z,4.33
2019-03-15T11:55:00.553Z,5.93
2019-03-15T11:56:07.602Z,11.27
2019-03-15T11:57:14.684Z,9.60
2019-03-15T11:58:21.045Z,5.40
2019-03-15T11:59:26.773Z,11.40
2019-03-15T12:00:33.173Z,14.20
2019-03-15T12:01:39.451Z,13.10
2019-03-15T12:02:45.780Z,7.90
2019-03-15T12:03:53.599Z,8.07
2019-03-15T12:04:59.647Z,9.23
2019-03-15T12:06:06.507Z,2.70
2019-03-15T12:07:12.863Z,2.10
2019-03-15T12:08:18.806Z,9.67
2019-03-15T12:09:24.921Z,12.27
2019-03-15T12:10:30.851Z,13.77
2019-03-15T12:11:37.390Z,10.70
2019-03-15T12:12:44.598Z,13.17
2019-03-15T12:13:50.762Z,5.43
2019-03-15T12:15:02.573Z,5.07
2019-03-15T12:16:08.353Z,4.13
2019-03-15T12:17:14.503Z,7.37
2019-03-15T12:18:20.271Z,2.27
2019-03-15T12:19:26.067Z,2.00
2019-03-15T12:20:33.365Z,5.17
2019-03-15T12:21:39.195Z,5.00
2019-03-15T12:22:44.903Z,3.87
2019-03-15T12:23:50.871Z,5.13
2019-03-15T12:24:57.821Z,5.63
2019-03-15T12:26:03.662Z,3.17
2019-03-15T12:27:21.340Z,6.57
2019-03-15T12:28:28.014Z,4.70
2019-03-15T12:29:34.131Z,6.13
2019-03-15T12:30:43.067Z,8.30
2019-03-15T12:31:48.953Z,8.80
2019-03-15T12:32:55.363Z,7.13
2019-03-15T12:34:02.164Z,7.33
2019-03-15T12:35:14.205Z,4.23
2019-03-15T12:36:20.512Z,3.80
2019-03-15T12:37:26.764Z,7.60
2019-03-15T12:38:33.974Z,9.10
2019-03-15T12:39:40.314Z,4.90
2019-03-15T12:40:46.894Z,2.10
2019-03-15T12:41:54.036Z,9.80
2019-03-15T12:43:00.214Z,3.10
2019-03-15T12:44:06.403Z,3.47
2019-03-15T12:45:13.165Z,3.80
2019-03-15T12:46:19.070Z,2.73
2019-03-15T12:47:25.141Z,3.00
2019-03-15T12:48:31.024Z,7.50
2019-03-15T12:49:36.878Z,6.53
2019-03-15T12:50:42.902Z,2.60
2019-03-15T12:51:48.764Z,7.60
2019-03-15T12:52:54.794Z,3.10
2019-03-15T12:54:00.591Z,4.70
2019-03-15T12:55:10.344Z,5.40
2019-03-15T12:56:16.664Z,5.50
2019-03-15T12:57:23.674Z,3.40
2019-03-15T12:58:29.654Z,3.30
2019-03-15T12:59:35.726Z,4.13
2019-03-15T13:00:42.183Z,3.83
2019-03-15T13:01:50.005Z,3.00
2019-03-15T13:02:56.566Z,4.00
2019-03-15T13:04:02.765Z,7.03
2019-03-15T13:05:09.674Z,4.83
2019-03-15T13:06:15.644Z,2.50
2019-03-15T13:07:22.614Z,2.87
2019-03-15T13:08:29.634Z,4.40
2019-03-15T13:09:35.486Z,3.73
2019-03-15T13:10:41.834Z,5.10
2019-03-15T13:11:48.676Z,3.47
2019-03-15T13:12:55.774Z,4.77
2019-03-15T13:14:02.434Z,3.53
2019-03-15T13:15:14.195Z,2.20
2019-03-15T13:16:20.154Z,1.80
2019-03-15T13:17:26.195Z,1.80
2019-03-15T13:18:32.338Z,2.07
2019-03-15T13:19:40.167Z,1.50
2019-03-15T13:20:46.189Z,1.57
2019-03-15T13:21:52.262Z,2.17
2019-03-15T13:22:59.736Z,3.50
2019-03-15T13:24:06.146Z,2.90
2019-03-15T13:25:13.454Z,2.40
2019-03-15T13:26:19.635Z,2.20
2019-03-15T13:27:25.793Z,2.97
2019-03-15T13:28:32.405Z,1.83
2019-03-15T13:29:39.029Z,2.27
2019-03-15T13:30:45.246Z,1.70
2019-03-15T13:31:51.395Z,1.80
2019-03-15T13:32:58.225Z,3.43
2019-03-15T13:34:06.464Z,3.73
2019-03-15T13:35:13.459Z,2.10
2019-03-15T13:36:21.473Z,1.70
2019-03-15T13:37:27.947Z,2.47
2019-03-15T13:38:34.757Z,1.50
2019-03-15T13:39:41.577Z,1.40
2019-03-15T13:40:48.226Z,1.43
2019-03-15T13:41:54.685Z,1.67
2019-03-15T13:43:00.847Z,3.37
2019-03-15T13:44:08.565Z,2.53
2019-03-15T13:45:15.441Z,1.90
2019-03-15T13:46:21.533Z,1.80
2019-03-15T13:47:27.758Z,1.90
2019-03-15T13:48:33.733Z,2.13
2019-03-15T13:49:39.726Z,2.40
2019-03-15T13:50:45.857Z,1.97
2019-03-15T13:51:51.806Z,2.00
2019-03-15T13:52:57.848Z,1.60
2019-03-15T13:54:03.721Z,1.80
2019-03-15T13:55:10.925Z,1.50
2019-03-15T13:56:16.968Z,1.47
2019-03-15T13:57:23.706Z,1.93
2019-03-15T13:58:30.038Z,1.60
2019-03-15T13:59:36.775Z,2.10
2019-03-15T14:00:43.703Z,3.57
2019-03-15T14:01:51.115Z,2.80
2019-03-15T14:02:57.726Z,2.60
2019-03-15T14:04:04.332Z,1.60
2019-03-15T14:05:11.070Z,2.10
2019-03-15T14:06:18.181Z,2.80
2019-03-15T14:07:25.657Z,1.90
2019-03-15T14:08:31.986Z,2.30
2019-03-15T14:09:39.830Z,2.10
2019-03-15T14:10:49.507Z,2.00
2019-03-15T14:11:54.376Z,3.00
2019-03-15T14:13:01.608Z,2.20
2019-03-15T14:14:08.105Z,2.27
2019-03-15T14:15:15.986Z,2.00
2019-03-15T14:16:22.017Z,1.30
2019-03-15T14:17:28.106Z,1.30
2019-03-15T14:18:34.196Z,1.50
2019-03-15T14:19:42.207Z,2.07
2019-03-15T14:20:48.379Z,1.70
2019-03-15T14:21:54.536Z,2.60
2019-03-15T14:23:00.618Z,1.27
2019-03-15T14:24:06.768Z,3.43
2019-03-15T14:25:25.886Z,1.60
2019-03-15T14:26:33.097Z,1.20
2019-03-15T14:27:40.270Z,1.20
2019-03-15T14:28:47.350Z,1.20
2019-03-15T14:29:53.718Z,1.40
2019-03-15T14:31:00.614Z,2.57
2019-03-15T14:32:08.246Z,2.80
2019-03-15T14:33:15.755Z,2.23
2019-03-15T14:34:23.377Z,1.80
2019-03-15T14:35:29.937Z,2.20
2019-03-15T14:37:55.001Z,2.50
2019-03-15T14:39:01.016Z,1.73
2019-03-15T14:40:10.567Z,1.80
2019-03-15T14:41:16.747Z,1.50
2019-03-15T14:42:24.209Z,2.63
2019-03-15T14:43:30.579Z,1.90
2019-03-15T14:44:37.030Z,2.50
2019-03-15T14:45:43.119Z,2.93